createdAt,value
2022-09-11T00:01:16.709Z,101021.88
2022-09-11T00:03:44.995Z,100967.81
2022-09-11T00:06:14.410Z,101038.28
2022-09-11T00:08:42.396Z,101034.13
2022-09-11T00:11:17.470Z,100832.34
2022-09-11T00:13:50.477Z,101025.47
2022-09-11T00:16:26.945Z,101037.38
2022-09-11T00:18:55.492Z,101034.91
2022-09-11T00:21:22.074Z,101040.00
2022-09-11T00:23:51.817Z,101028.69
2022-09-11T00:26:19.635Z,101038.28
2022-09-11T00:28:46.658Z,101044.53
2022-09-11T00:31:16.492Z,100849.66
2022-09-11T00:33:43.888Z,101041.63
2022-09-11T00:36:16.974Z,101053.75
2022-09-11T00:38:43.870Z,101041.25
2022-09-11T00:41:14.897Z,101054.97
2022-09-11T00:44:13.285Z,101053.47
2022-09-11T00:46:47.405Z,101066.59
2022-09-11T00:49:58.694Z,101057.16
2022-09-11T00:52:34.239Z,101082.22
2022-09-11T00:55:14.487Z,101066.97
2022-09-11T00:57:58.996Z,100841.88
2022-09-11T01:00:25.653Z,101055.16
2022-09-11T01:02:54.526Z,100854.03
2022-09-11T01:05:25.213Z,101061.09
2022-09-11T01:07:54.547Z,101065.72
2022-09-11T01:10:36.519Z,100859.84
2022-09-11T01:13:17.394Z,101044.72
2022-09-11T01:15:58.963Z,100989.63
2022-09-11T01:19:00.969Z,101076.75
2022-09-11T01:21:54.449Z,101075.03
2022-09-11T01:24:39.758Z,101078.72
2022-09-11T01:27:25.525Z,101080.53
2022-09-11T01:30:01.800Z,101075.31
2022-09-11T01:32:37.020Z,101083.91
2022-09-11T01:35:12.665Z,100875.47
2022-09-11T01:37:53.767Z,100897.09
2022-09-11T01:40:28.240Z,101091.28
2022-09-11T01:43:03.423Z,101053.75
2022-09-11T01:45:37.378Z,101097.41
2022-09-11T01:48:07.961Z,100920.06
2022-09-11T01:50:39.030Z,101060.72
2022-09-11T01:53:15.107Z,101065.38
2022-09-11T01:55:55.479Z,101104.28
2022-09-11T01:58:30.942Z,101105.03
2022-09-11T02:01:09.625Z,101104.13
2022-09-11T02:03:48.460Z,101104.78
2022-09-11T02:06:31.152Z,101062.13
2022-09-11T02:09:03.093Z,101130.97
2022-09-11T02:11:34.162Z,100948.78
2022-09-11T02:14:38.332Z,101110.59
2022-09-11T02:17:25.819Z,101123.75
2022-09-11T02:19:54.531Z,101079.69
2022-09-11T02:22:21.015Z,101104.13
2022-09-11T02:24:47.475Z,101122.63
2022-09-11T02:27:19.487Z,101100.50
2022-09-11T02:29:46.091Z,101097.03
2022-09-11T02:32:12.800Z,100930.13
2022-09-11T02:34:42.657Z,101123.28
2022-09-11T02:37:40.195Z,101132.88
2022-09-11T02:40:31.954Z,101126.00
2022-09-11T02:43:23.233Z,101121.03
2022-09-11T02:46:07.950Z,101081.00
2022-09-11T02:48:35.742Z,101129.22
2022-09-11T02:51:34.803Z,101135.28
2022-09-11T02:54:32.989Z,101137.91
2022-09-11T02:57:13.947Z,101058.94
2022-09-11T02:59:51.952Z,101144.88
2022-09-11T03:02:18.554Z,101136.38
2022-09-11T03:04:45.539Z,100969.03
2022-09-11T03:07:12.684Z,101143.06
2022-09-11T03:09:39.185Z,100936.72
2022-09-11T03:12:06.178Z,101125.81
2022-09-11T03:14:32.523Z,101131.97
2022-09-11T03:16:59.198Z,101137.69
2022-09-11T03:19:25.559Z,101106.47
2022-09-11T03:21:52.282Z,101133.94
2022-09-11T03:24:18.634Z,101160.56
2022-09-11T03:26:45.217Z,101130.53
2022-09-11T03:29:12.367Z,101162.44
2022-09-11T03:31:39.531Z,101156.19
2022-09-11T03:34:06.429Z,101041.50
2022-09-11T03:36:34.562Z,100991.47
2022-09-11T03:39:01.982Z,100964.59
2022-09-11T03:41:28.701Z,101118.44
2022-09-11T03:43:55.210Z,101159.31
2022-09-11T03:46:21.894Z,101132.19
2022-09-11T03:48:48.253Z,101166.09
2022-09-11T03:51:15.220Z,101130.22
2022-09-11T03:53:42.939Z,101162.44
2022-09-11T03:56:10.142Z,101149.78
2022-09-11T03:58:37.087Z,101187.06
2022-09-11T04:01:12.150Z,100988.34
2022-09-11T04:03:39.969Z,101164.88
2022-09-11T04:06:07.485Z,101160.63
2022-09-11T04:08:36.970Z,101173.00
2022-09-11T04:11:06.042Z,101153.56
2022-09-11T04:13:37.681Z,101030.47
2022-09-11T04:16:11.222Z,101170.38
2022-09-11T04:18:39.806Z,101168.56
2022-09-11T04:21:12.515Z,101145.22
2022-09-11T04:23:39.235Z,101172.25
2022-09-11T04:26:16.819Z,101170.84
2022-09-11T04:28:43.713Z,101173.34
2022-09-11T04:31:10.427Z,101156.47
2022-09-11T04:33:37.378Z,100972.31
2022-09-11T04:36:08.369Z,101175.34
2022-09-11T04:38:34.883Z,101172.72
2022-09-11T04:41:03.132Z,100988.03
2022-09-11T04:43:38.129Z,101174.78
2022-09-11T04:46:07.032Z,101180.91
2022-09-11T04:48:33.648Z,101094.19
2022-09-11T04:51:06.037Z,101186.09
2022-09-11T04:53:33.852Z,101180.13
2022-09-11T04:56:06.364Z,101179.97
2022-09-11T04:58:33.822Z,100978.41
2022-09-11T05:01:00.343Z,101192.03
2022-09-11T05:03:29.961Z,101187.28
2022-09-11T05:05:56.455Z,101044.31
2022-09-11T05:08:26.826Z,101164.25
2022-09-11T05:10:53.240Z,101172.09
2022-09-11T05:13:19.893Z,100970.88
2022-09-11T05:15:47.006Z,101202.00
2022-09-11T05:18:13.384Z,101210.59
2022-09-11T05:20:40.601Z,101212.31
2022-09-11T05:23:07.512Z,101209.53
2022-09-11T05:25:33.986Z,101104.06
2022-09-11T05:28:00.457Z,101209.53
2022-09-11T05:30:28.816Z,101224.03
2022-09-11T05:32:55.311Z,101008.47
2022-09-11T05:35:27.231Z,101224.59
2022-09-11T05:37:55.574Z,101223.41
2022-09-11T05:40:21.911Z,101049.16
2022-09-11T05:42:50.653Z,101243.94
2022-09-11T05:45:16.999Z,101242.81
2022-09-11T05:47:43.466Z,101245.47
2022-09-11T05:50:10.081Z,101202.75
2022-09-11T05:52:36.521Z,101204.63
2022-09-11T05:55:02.963Z,101255.66
2022-09-11T05:57:29.473Z,101195.19
2022-09-11T05:59:55.856Z,101029.06
2022-09-11T06:02:22.337Z,101266.59
2022-09-11T06:04:48.814Z,101263.84
2022-09-11T06:07:15.277Z,101265.47
2022-09-11T06:09:41.777Z,101265.66
2022-09-11T06:12:11.777Z,101287.16
2022-09-11T06:14:38.558Z,101273.94
2022-09-11T06:17:06.392Z,101275.28
2022-09-11T06:19:32.885Z,101270.56
2022-09-11T06:21:59.273Z,101264.16
2022-09-11T06:24:25.839Z,101232.63
2022-09-11T06:26:52.232Z,101246.31
2022-09-11T06:29:19.445Z,101265.09
2022-09-11T06:31:47.619Z,101257.56
2022-09-11T06:34:14.052Z,101272.19
2022-09-11T06:36:40.438Z,101275.66
2022-09-11T06:39:06.852Z,101283.13
2022-09-11T06:41:33.281Z,101284.19
2022-09-11T06:43:59.842Z,101284.25
2022-09-11T06:46:26.893Z,101127.97
2022-09-11T06:48:53.772Z,101272.19
2022-09-11T06:51:21.485Z,101306.72
2022-09-11T06:53:48.581Z,101307.59
2022-09-11T06:56:17.885Z,101308.06
2022-09-11T06:58:45.909Z,101217.16
2022-09-11T07:01:12.250Z,101304.56
2022-09-11T07:03:44.942Z,101273.31
2022-09-11T07:06:12.705Z,101309.47
2022-09-11T07:08:39.458Z,101286.53
2022-09-11T07:11:08.072Z,101313.72
2022-09-11T07:13:37.493Z,101316.06
2022-09-11T07:16:07.736Z,101315.31
2022-09-11T07:18:42.485Z,101334.78
2022-09-11T07:21:16.810Z,101314.56
2022-09-11T07:23:48.098Z,101307.84
2022-09-11T07:26:17.555Z,101310.50
2022-09-11T07:28:44.260Z,101304.44
2022-09-11T07:31:18.597Z,101311.06
2022-09-11T07:33:48.754Z,101331.00
2022-09-11T07:36:17.601Z,101321.72
2022-09-11T07:38:46.060Z,101329.66
2022-09-11T07:41:14.378Z,101320.88
2022-09-11T07:43:50.695Z,101333.72
2022-09-11T07:46:17.594Z,101327.94
2022-09-11T07:48:44.778Z,101295.75
2022-09-11T07:51:13.714Z,101323.75
2022-09-11T07:53:45.368Z,101326.50
2022-09-11T07:56:18.413Z,101337.13
2022-09-11T07:58:45.398Z,101344.00
2022-09-11T08:01:17.201Z,101341.34
2022-09-11T08:03:44.708Z,101342.81
2022-09-11T08:06:18.919Z,101336.25
2022-09-11T08:08:52.477Z,101347.78
2022-09-11T08:11:19.046Z,101348.16
2022-09-11T08:13:53.547Z,101363.28
2022-09-11T08:16:22.200Z,101126.25
2022-09-11T08:18:49.044Z,101374.25
2022-09-11T08:21:16.274Z,101145.22
2022-09-11T08:23:44.264Z,101363.00
2022-09-11T08:26:11.997Z,101369.16
2022-09-11T08:28:39.990Z,101354.41
2022-09-11T08:31:07.016Z,101330.28
2022-09-11T08:33:33.765Z,101374.03
2022-09-11T08:36:02.434Z,101378.94
2022-09-11T08:38:29.620Z,101379.22
2022-09-11T08:41:09.282Z,101189.94
2022-09-11T08:43:38.972Z,101377.38
2022-09-11T08:46:09.440Z,101182.22
2022-09-11T08:48:49.718Z,101310.72
2022-09-11T08:51:18.242Z,101385.28
2022-09-11T08:53:45.598Z,101324.81
2022-09-11T08:56:18.281Z,101384.41
2022-09-11T08:58:47.665Z,101380.28
2022-09-11T09:01:57.856Z,101383.34
2022-09-11T09:04:46.382Z,101382.84
2022-09-11T09:07:21.342Z,101398.19
2022-09-11T09:09:53.655Z,101401.78
2022-09-11T09:12:32.459Z,101394.34
2022-09-11T09:15:20.041Z,101397.66
2022-09-11T09:18:03.611Z,101398.34
2022-09-11T09:20:34.212Z,101380.19
2022-09-11T09:23:06.703Z,101390.31
2022-09-11T09:25:39.918Z,101213.78
2022-09-11T09:28:39.301Z,101372.78
2022-09-11T09:31:10.321Z,101411.97
2022-09-11T09:33:58.431Z,101414.53
2022-09-11T09:36:33.043Z,101420.72
2022-09-11T09:38:59.876Z,101407.56
2022-09-11T09:41:52.538Z,101426.13
2022-09-11T09:44:43.848Z,101430.34
2022-09-11T09:47:14.265Z,101259.66
2022-09-11T09:49:41.702Z,101241.63
2022-09-11T09:52:26.490Z,101433.09
2022-09-11T09:55:13.274Z,101426.97
2022-09-11T09:57:40.067Z,101383.44
2022-09-11T10:00:15.846Z,101418.47
2022-09-11T10:02:56.424Z,101428.53
2022-09-11T10:05:41.406Z,101425.25
2022-09-11T10:08:31.599Z,101425.34
2022-09-11T10:11:01.328Z,101390.09
2022-09-11T10:13:33.394Z,101238.34
2022-09-11T10:16:03.726Z,101431.84
2022-09-11T10:18:30.469Z,101434.28
2022-09-11T10:21:12.076Z,101445.09
2022-09-11T10:23:46.572Z,101434.72
2022-09-11T10:26:24.710Z,101455.50
2022-09-11T10:28:56.378Z,101439.78
2022-09-11T10:31:22.970Z,101422.53
2022-09-11T10:33:57.703Z,101260.25
2022-09-11T10:36:27.191Z,101439.75
2022-09-11T10:38:55.837Z,101443.00
2022-09-11T10:41:25.042Z,101429.50
2022-09-11T10:44:03.142Z,101402.06
2022-09-11T10:46:40.448Z,101433.34
2022-09-11T10:49:21.023Z,101417.72
2022-09-11T10:52:08.856Z,101429.47
2022-09-11T10:54:53.201Z,101441.34
2022-09-11T10:57:31.467Z,101430.56
2022-09-11T11:00:09.223Z,101417.22
2022-09-11T11:02:43.086Z,101436.22
2022-09-11T11:05:27.075Z,101429.34
2022-09-11T11:07:56.382Z,101431.59
2022-09-11T11:10:37.830Z,101432.06
2022-09-11T11:13:39.414Z,101429.53
2022-09-11T11:16:27.553Z,101430.88
2022-09-11T11:19:14.952Z,101430.47
2022-09-11T11:22:12.274Z,101428.75
2022-09-11T11:24:53.631Z,101421.41
2022-09-11T11:27:49.358Z,101423.47
2022-09-11T11:30:19.506Z,101447.38
2022-09-11T11:33:03.858Z,101408.94
2022-09-11T11:35:44.757Z,101430.91
2022-09-11T11:38:24.323Z,101422.06
2022-09-11T11:41:07.755Z,101275.41
2022-09-11T11:43:39.869Z,101428.31
2022-09-11T11:46:17.845Z,101393.84
2022-09-11T11:49:01.766Z,101432.22
2022-09-11T11:51:33.982Z,101442.00
2022-09-11T11:54:10.509Z,101418.97
2022-09-11T11:56:50.084Z,101276.72
2022-09-11T11:59:47.207Z,101202.31
2022-09-11T12:02:30.614Z,101423.63
2022-09-11T12:05:05.887Z,101376.00
2022-09-11T12:07:34.698Z,101434.34
2022-09-11T12:10:03.232Z,101452.41
2022-09-11T12:12:35.728Z,101347.19
2022-09-11T12:15:08.736Z,101431.94
2022-09-11T12:17:40.160Z,101421.75
2022-09-11T12:20:09.302Z,101431.34
2022-09-11T12:22:39.001Z,101442.44
2022-09-11T12:25:26.060Z,101438.47
2022-09-11T12:28:14.306Z,101431.31
2022-09-11T12:31:13.898Z,101431.75
2022-09-11T12:33:47.178Z,101427.09
2022-09-11T12:36:38.522Z,101436.50
2022-09-11T12:39:17.853Z,101419.97
2022-09-11T12:41:45.788Z,101438.47
2022-09-11T12:44:29.889Z,101420.38
2022-09-11T12:46:59.030Z,101438.88
2022-09-11T12:49:27.198Z,101433.16
2022-09-11T12:51:56.281Z,101187.94
2022-09-11T12:54:28.828Z,101427.88
2022-09-11T12:57:09.172Z,101425.38
2022-09-11T12:59:39.093Z,101418.88
2022-09-11T13:02:28.319Z,101415.72
2022-09-11T13:04:55.569Z,101417.84
2022-09-11T13:07:41.602Z,101382.72
2022-09-11T13:10:24.970Z,101212.28
2022-09-11T13:12:54.160Z,101344.00
2022-09-11T13:15:37.178Z,101407.47
2022-09-11T13:18:35.752Z,101219.22
2022-09-11T13:21:04.854Z,101394.53
2022-09-11T13:23:31.497Z,101391.38
2022-09-11T13:25:58.448Z,101377.56
2022-09-11T13:28:27.535Z,101345.56
2022-09-11T13:31:01.921Z,101396.53
2022-09-11T13:33:31.003Z,101380.44
2022-09-11T13:36:02.895Z,101376.28
2022-09-11T13:38:37.201Z,101356.03
2022-09-11T13:41:13.421Z,101374.41
2022-09-11T13:43:47.638Z,101380.94
2022-09-11T13:46:16.977Z,101386.09
2022-09-11T13:48:44.797Z,101381.38
2022-09-11T13:51:20.765Z,101191.75
2022-09-11T13:54:10.129Z,101380.47
2022-09-11T13:56:38.433Z,101379.19
2022-09-11T13:59:42.929Z,101381.16
2022-09-11T14:02:34.569Z,101389.72
2022-09-11T14:05:05.442Z,101383.09
2022-09-11T14:07:35.004Z,101210.41
2022-09-11T14:10:07.534Z,101369.50
2022-09-11T14:12:35.190Z,101369.41
2022-09-11T14:15:16.361Z,101341.09
2022-09-11T14:17:42.849Z,101347.09
2022-09-11T14:20:17.230Z,101357.66
2022-09-11T14:22:44.177Z,101291.56
2022-09-11T14:25:21.654Z,101245.41
2022-09-11T14:27:48.439Z,101351.84
2022-09-11T14:30:36.868Z,101355.56
2022-09-11T14:33:15.306Z,101357.13
2022-09-11T14:38:11.506Z,101332.56
2022-09-11T14:40:42.019Z,101352.81
2022-09-11T14:43:09.964Z,101328.19
2022-09-11T14:45:36.389Z,101319.06
2022-09-11T14:48:03.329Z,101348.72
2022-09-11T14:50:30.861Z,101127.00
2022-09-11T14:52:57.292Z,101342.06
2022-09-11T14:55:23.934Z,101318.03
2022-09-11T14:57:50.297Z,101343.56
2022-09-11T15:00:18.593Z,101346.28
2022-09-11T15:02:45.086Z,101343.69
2022-09-11T15:05:17.362Z,101331.44
2022-09-11T15:07:46.432Z,101328.34
2022-09-11T15:10:14.037Z,101348.41
2022-09-11T15:12:40.501Z,101138.47
2022-09-11T15:15:07.567Z,101338.16
2022-09-11T15:17:36.235Z,101315.56
2022-09-11T15:20:09.133Z,101334.59
2022-09-11T15:22:36.405Z,101319.31
2022-09-11T15:25:03.563Z,101323.81
2022-09-11T15:27:29.988Z,101320.91
2022-09-11T15:29:56.349Z,101108.00
2022-09-11T15:32:23.044Z,101331.28
2022-09-11T15:34:49.502Z,101304.94
2022-09-11T15:37:18.529Z,101320.28
2022-09-11T15:39:44.915Z,101245.25
2022-09-11T15:42:12.526Z,101287.13
2022-09-11T15:44:41.662Z,101174.72
2022-09-11T15:47:08.825Z,101144.34
2022-09-11T15:49:40.512Z,101317.69
2022-09-11T15:52:07.433Z,101280.84
2022-09-11T15:54:33.852Z,101303.66
2022-09-11T15:57:00.534Z,101314.50
2022-09-11T15:59:26.927Z,101152.69
2022-09-11T16:01:53.410Z,101317.00
2022-09-11T16:04:21.910Z,101339.34
2022-09-11T16:06:50.381Z,101308.41
2022-09-11T16:09:22.884Z,101328.88
2022-09-11T16:11:50.297Z,101329.94
2022-09-11T16:14:18.997Z,101321.28
2022-09-11T16:16:48.295Z,101320.56
2022-09-11T16:19:15.728Z,101295.31
2022-09-11T16:21:42.101Z,101297.06
2022-09-11T16:24:09.897Z,101299.38
2022-09-11T16:26:38.232Z,101330.19
2022-09-11T16:29:09.589Z,101280.25
2022-09-11T16:31:36.071Z,101320.25
2022-09-11T16:34:04.084Z,101293.94
2022-09-11T16:36:33.590Z,101099.19
2022-09-11T16:39:01.130Z,101308.81
2022-09-11T16:41:27.453Z,101261.44
2022-09-11T16:43:54.140Z,101161.28
2022-09-11T16:46:23.205Z,101270.41
2022-09-11T16:48:54.395Z,101306.16
2022-09-11T16:51:23.400Z,101309.22
2022-09-11T16:53:50.298Z,101308.91
2022-09-11T16:56:19.983Z,101138.28
2022-09-11T16:58:47.035Z,101120.47
2022-09-11T17:01:20.027Z,101169.56
2022-09-11T17:03:48.437Z,101302.03
2022-09-11T17:06:16.726Z,101304.22
2022-09-11T17:08:44.573Z,101300.09
2022-09-11T17:11:14.369Z,101296.25
2022-09-11T17:13:42.582Z,101289.25
2022-09-11T17:16:16.527Z,101295.53
2022-09-11T17:18:51.267Z,101298.06
2022-09-11T17:21:17.755Z,101076.78
2022-09-11T17:23:44.923Z,101298.22
2022-09-11T17:26:14.029Z,101305.09
2022-09-11T17:28:41.958Z,101079.84
2022-09-11T17:31:10.651Z,101303.06
2022-09-11T17:33:40.083Z,101307.41
2022-09-11T17:36:08.553Z,101244.09
2022-09-11T17:38:35.126Z,101208.72
2022-09-11T17:41:04.812Z,101317.09
2022-09-11T17:43:33.131Z,101101.81
2022-09-11T17:46:04.877Z,101259.03
2022-09-11T17:48:31.815Z,101142.25
2022-09-11T17:51:09.130Z,101312.34
2022-09-11T17:53:38.625Z,101323.78
2022-09-11T17:56:09.698Z,101342.28
2022-09-11T17:58:37.273Z,101321.28
2022-09-11T18:01:05.233Z,101317.16
2022-09-11T18:03:33.416Z,101299.81
2022-09-11T18:06:01.495Z,101306.19
2022-09-11T18:08:29.068Z,101326.03
2022-09-11T18:10:59.903Z,101316.06
2022-09-11T18:13:28.282Z,101324.06
2022-09-11T18:15:56.164Z,101191.63
2022-09-11T18:18:23.773Z,101116.06
2022-09-11T18:20:53.831Z,101325.44
2022-09-11T18:23:24.170Z,101362.13
2022-09-11T18:25:51.474Z,101325.56
2022-09-11T18:28:19.984Z,101175.22
2022-09-11T18:30:47.433Z,101328.91
2022-09-11T18:33:16.615Z,101121.72
2022-09-11T18:35:44.179Z,101312.13
2022-09-11T18:38:10.848Z,101140.16
2022-09-11T18:40:37.246Z,101337.88
2022-09-11T18:43:03.661Z,101206.38
2022-09-11T18:45:30.667Z,101095.50
2022-09-11T18:47:57.223Z,101192.22
2022-09-11T18:50:24.663Z,101320.13
2022-09-11T18:52:52.013Z,101325.59
2022-09-11T18:55:22.734Z,101189.22
2022-09-11T18:57:50.361Z,101323.00
2022-09-11T19:00:17.870Z,101320.66
2022-09-11T19:02:46.073Z,101263.28
2022-09-11T19:05:15.392Z,101321.03
2022-09-11T19:07:43.904Z,101315.91
2022-09-11T19:10:11.601Z,101304.91
2022-09-11T19:12:39.395Z,101317.94
2022-09-11T19:15:07.594Z,101322.56
2022-09-11T19:17:36.614Z,101317.56
2022-09-11T19:20:06.011Z,101329.25
2022-09-11T19:22:32.471Z,101256.88
2022-09-11T19:24:59.835Z,101277.09
2022-09-11T19:27:26.737Z,101282.09
2022-09-11T19:29:53.557Z,101319.66
2022-09-11T19:32:20.021Z,101126.91
2022-09-11T19:34:47.409Z,101257.34
2022-09-11T19:37:15.113Z,101329.88
2022-09-11T19:39:41.770Z,101309.66
2022-09-11T19:42:09.180Z,101157.63
2022-09-11T19:44:35.878Z,101127.44
2022-09-11T19:47:02.553Z,101338.81
2022-09-11T19:49:29.849Z,101314.34
2022-09-11T19:51:57.038Z,101288.59
2022-09-11T19:54:23.758Z,101326.28
2022-09-11T19:56:51.020Z,101126.75
2022-09-11T19:59:17.425Z,101215.94
2022-09-11T20:01:44.219Z,101317.56
2022-09-11T20:04:12.379Z,101303.75
2022-09-11T20:06:39.139Z,101161.25
2022-09-11T20:11:52.572Z,101309.06
2022-09-11T20:14:18.952Z,101324.22
2022-09-11T20:16:45.483Z,101327.97
2022-09-11T20:19:12.105Z,101327.28
2022-09-11T20:21:38.596Z,101294.09
2022-09-11T20:24:06.735Z,101234.88
2022-09-11T20:26:34.027Z,101317.44
2022-09-11T20:29:03.389Z,101217.63
2022-09-11T20:31:32.772Z,101313.91
2022-09-11T20:34:00.715Z,101292.31
2022-09-11T20:36:29.790Z,101320.91
2022-09-11T20:38:58.275Z,101142.47
2022-09-11T20:41:28.877Z,101313.56
2022-09-11T20:43:56.943Z,101238.56
2022-09-11T20:46:23.958Z,101323.53
2022-09-11T20:48:52.808Z,101296.28
2022-09-11T20:51:20.814Z,101200.16
2022-09-11T20:53:47.319Z,101254.31
2022-09-11T20:56:16.473Z,101303.88
2022-09-11T20:58:44.202Z,101276.41
2022-09-11T21:01:15.903Z,101296.25
2022-09-11T21:03:45.085Z,101293.69
2022-09-11T21:06:11.661Z,101280.06
2022-09-11T21:08:39.819Z,101260.59
2022-09-11T21:11:07.764Z,101286.03
2022-09-11T21:13:36.839Z,101279.16
2022-09-11T21:16:08.774Z,101282.78
2022-09-11T21:18:35.482Z,101020.88
2022-09-11T21:21:02.298Z,101137.97
2022-09-11T21:23:29.287Z,101283.81
2022-09-11T21:25:55.777Z,101272.78
2022-09-11T21:28:22.627Z,101216.03
2022-09-11T21:30:49.465Z,101152.31
2022-09-11T21:33:19.868Z,101126.06
2022-09-11T21:36:06.004Z,101273.34
2022-09-11T21:38:33.185Z,101275.50
2022-09-11T21:41:02.036Z,101070.13
2022-09-11T21:43:28.983Z,101287.06
2022-09-11T21:45:55.777Z,101232.19
2022-09-11T21:48:23.068Z,101244.34
2022-09-11T21:50:49.764Z,101175.84
2022-09-11T21:53:16.276Z,101069.97
2022-09-11T21:55:44.922Z,101266.38
2022-09-11T21:58:21.295Z,101278.00
2022-09-11T22:00:49.052Z,101239.19
2022-09-11T22:03:18.377Z,101035.00
2022-09-11T22:05:47.607Z,101261.50
2022-09-11T22:08:16.949Z,101181.72
2022-09-11T22:10:45.117Z,101266.00
2022-09-11T22:13:11.466Z,101104.19
2022-09-11T22:15:42.163Z,101266.06
2022-09-11T22:18:09.807Z,101065.75
2022-09-11T22:20:37.617Z,101269.81
2022-09-11T22:23:04.263Z,101274.31
2022-09-11T22:25:30.647Z,101253.22
2022-09-11T22:27:57.060Z,101208.56
2022-09-11T22:30:23.752Z,101249.06
2022-09-11T22:32:50.730Z,101185.25
2022-09-11T22:35:17.433Z,101248.22
2022-09-11T22:37:43.742Z,101250.84
2022-09-11T22:40:10.956Z,101277.97
2022-09-11T22:42:37.595Z,101238.84
2022-09-11T22:45:04.588Z,101233.41
2022-09-11T22:47:31.137Z,101043.63
2022-09-11T22:49:57.719Z,101242.78
2022-09-11T22:52:24.299Z,101240.22
2022-09-11T22:54:51.029Z,101233.47
2022-09-11T22:57:17.441Z,101244.09
2022-09-11T22:59:44.223Z,101044.19
2022-09-11T23:02:12.877Z,101044.50
2022-09-11T23:04:39.535Z,101229.78
2022-09-11T23:07:15.934Z,101234.22
2022-09-11T23:09:43.945Z,101219.38
2022-09-11T23:12:11.252Z,101238.59
2022-09-11T23:14:37.702Z,101263.44
2022-09-11T23:17:04.454Z,101241.94
2022-09-11T23:19:31.940Z,101238.53
2022-09-11T23:21:58.346Z,101027.09
2022-09-11T23:24:25.149Z,101229.16
2022-09-11T23:26:51.500Z,101195.13
2022-09-11T23:29:17.971Z,101175.84
2022-09-11T23:31:45.387Z,101228.31
2022-09-11T23:34:15.323Z,101226.53
2022-09-11T23:36:41.943Z,101103.03
2022-09-11T23:39:08.436Z,101119.97
2022-09-11T23:41:34.925Z,101222.03
2022-09-11T23:44:03.491Z,101221.19
2022-09-11T23:46:30.238Z,101049.16
2022-09-11T23:48:56.722Z,100983.91
2022-09-11T23:51:23.132Z,101202.31
2022-09-11T23:53:51.688Z,101207.50
2022-09-11T23:56:18.868Z,101205.97
2022-09-11T23:58:45.679Z,100975.63
